Time;durP1;ratioP1;P1;durP2;ratioP2;P2;SDS_P1;SDS_P2;PMS_P1;PMS_P2;Temp;Humidity;BMP_temperature;BMP_pressure;BME280_temperature;BME280_humidity;BME280_pressure;Samples;Min_cycle;Max_cycle;Signal;HPM_P1;HPM_P2
2022/07/01 00:00:34;;;;;;;4.22;1.80;;;;;;;14.77;64.67;99882.13;4984561;28;20112;-47
2022/07/01 00:03:00;;;;;;;3.63;1.77;;;;;;;14.80;64.44;99880.38;4981601;28;21758;-45
2022/07/01 00:05:27;;;;;;;4.40;1.90;;;;;;;14.78;64.60;99886.50;4985896;28;20053;-47
2022/07/01 00:07:54;;;;;;;5.47;2.20;;;;;;;14.78;64.61;99883.88;4983715;28;20061;-47
2022/07/01 00:10:20;;;;;;;5.45;2.08;;;;;;;14.82;64.58;99889.88;4979993;28;20055;-46
2022/07/01 00:12:47;;;;;;;2.97;1.85;;;;;;;14.83;64.69;99895.94;4982692;28;20069;-49
2022/07/01 00:15:14;;;;;;;5.35;2.00;;;;;;;14.84;64.99;99893.31;4983260;28;20053;-48
2022/07/01 00:17:42;;;;;;;3.10;2.25;;;;;;;14.85;64.42;99879.38;4984311;28;20043;-46
2022/07/01 00:20:09;;;;;;;3.75;2.20;;;;;;;14.84;64.98;99872.44;4984391;28;20051;-48
2022/07/01 00:22:36;;;;;;;3.10;1.88;;;;;;;14.86;64.57;99875.88;4978349;28;20735;-47
2022/07/01 00:25:03;;;;;;;3.30;1.80;;;;;;;14.87;64.93;99877.59;4979994;28;20042;-47
2022/07/01 00:27:30;;;;;;;3.80;1.60;;;;;;;14.87;64.79;99872.38;4985806;28;20073;-45
2022/07/01 00:29:56;;;;;;;4.45;1.42;;;;;;;14.88;64.94;99874.09;4980009;28;20046;-48
2022/07/01 00:32:23;;;;;;;4.35;1.75;;;;;;;14.88;64.86;99874.09;4980855;28;20054;-47
2022/07/01 00:34:50;;;;;;;5.32;1.67;;;;;;;14.88;64.69;99874.09;4985141;28;20522;-49
2022/07/01 00:37:16;;;;;;;4.45;1.85;;;;;;;14.89;65.06;99874.94;4983608;28;20109;-46
2022/07/01 00:39:43;;;;;;;3.50;2.00;;;;;;;14.87;65.19;99867.16;4979924;28;20054;-46
2022/07/01 00:42:10;;;;;;;4.43;1.88;;;;;;;14.87;64.87;99867.16;4981617;28;20479;-49
2022/07/01 00:44:37;;;;;;;2.13;1.33;;;;;;;14.86;65.00;99865.44;4981636;28;20050;-47
2022/07/01 00:47:09;;;;;;;2.97;1.70;;;;;;;14.86;65.11;99875.88;4981540;28;20050;-48
2022/07/01 00:49:37;;;;;;;2.95;1.77;;;;;;;14.87;64.99;99871.53;4983550;28;20042;-47
2022/07/01 00:52:08;;;;;;;2.55;1.73;;;;;;;14.85;65.35;99862.88;4983842;28;20055;-46
2022/07/01 00:54:37;;;;;;;3.70;1.92;;;;;;;14.83;65.06;99870.72;4982613;28;20532;-49
2022/07/01 00:57:07;;;;;;;2.70;1.25;;;;;;;14.80;65.35;99865.59;4981066;28;20053;-48
2022/07/01 00:59:35;;;;;;;2.97;1.55;;;;;;;14.78;65.30;99862.16;4979513;28;20050;-46
2022/07/01 01:02:04;;;;;;;3.50;2.45;;;;;;;14.78;65.20;99857.81;4980866;28;20422;-47
2022/07/01 01:04:30;;;;;;;3.03;1.45;;;;;;;14.77;65.47;99855.22;4983443;28;20541;-48
2022/07/01 01:06:57;;;;;;;5.88;1.73;;;;;;;14.77;65.75;99855.22;4983748;28;20050;-45
2022/07/01 01:09:24;;;;;;;2.88;2.13;;;;;;;14.75;65.48;99863.06;4983777;28;20054;-45
2022/07/01 01:11:50;;;;;;;5.15;1.65;;;;;;;14.76;65.92;99859.53;4982517;28;20054;-46
2022/07/01 01:14:17;;;;;;;6.47;1.98;;;;;;;14.77;65.77;99860.44;4983940;28;20096;-47
2022/07/01 01:16:43;;;;;;;5.22;1.38;;;;;;;14.77;65.48;99860.44;4979771;28;20065;-47
2022/07/01 01:19:10;;;;;;;4.43;1.98;;;;;;;14.76;65.98;99863.94;4983971;28;20087;-47
2022/07/01 01:21:37;;;;;;;3.88;1.58;;;;;;;14.76;65.53;99863.94;4981763;28;20046;-47
2022/07/01 01:24:07;;;;;;;5.30;1.50;;;;;;;14.75;65.48;99868.28;4983981;28;20101;-46
2022/07/01 01:26:33;;;;;;;6.60;2.45;;;;;;;14.74;65.76;99863.09;4984198;28;20470;-48
2022/07/01 01:29:00;;;;;;;3.03;1.83;;;;;;;14.75;66.24;99867.41;4986946;28;20058;-46
2022/07/01 01:31:29;;;;;;;4.55;2.53;;;;;;;14.73;66.03;99869.19;4985741;28;20421;-44
2022/07/01 01:33:57;;;;;;;6.43;2.03;;;;;;;14.73;65.80;99870.03;4983959;28;20043;-44
2022/07/01 01:36:23;;;;;;;4.35;1.73;;;;;;;14.72;66.17;99875.28;4987214;28;20062;-43
2022/07/01 01:38:50;;;;;;;3.33;1.67;;;;;;;14.72;66.21;99867.47;4984214;28;20568;-43
2022/07/01 01:41:17;;;;;;;3.80;1.55;;;;;;;14.70;66.06;99875.34;4986576;28;20043;-45
2022/07/01 01:43:43;;;;;;;3.85;1.23;;;;;;;14.70;65.99;99874.47;4984763;28;20449;-44
2022/07/01 01:46:10;;;;;;;3.67;1.25;;;;;;;14.67;66.53;99879.75;4981736;28;20042;-44
2022/07/01 01:48:37;;;;;;;2.78;1.17;;;;;;;14.64;66.43;99876.34;4980729;28;20078;-45
2022/07/01 01:51:03;;;;;;;2.47;1.55;;;;;;;14.63;66.78;99885.03;4987685;28;20199;-45
2022/07/01 01:53:30;;;;;;;4.25;2.15;;;;;;;14.64;67.00;99881.56;4986564;28;20078;-45
2022/07/01 01:55:56;;;;;;;2.33;1.60;;;;;;;14.64;66.88;99880.69;4985663;28;20525;-49
2022/07/01 01:58:23;;;;;;;6.57;1.80;;;;;;;14.62;66.89;99875.50;4988590;28;20058;-46
2022/07/01 02:00:49;;;;;;;3.80;1.67;;;;;;;14.60;67.49;99874.69;4988838;28;20559;-44
2022/07/01 02:03:18;;;;;;;3.22;1.55;;;;;;;14.56;66.86;99878.22;4985843;28;20092;-44
2022/07/01 02:05:45;;;;;;;3.55;1.33;;;;;;;14.55;66.93;99878.31;4990196;28;20499;-47
2022/07/01 02:08:13;;;;;;;4.55;1.92;;;;;;;14.53;66.67;99879.16;4982999;28;20074;-45
2022/07/01 02:10:39;;;;;;;4.70;2.15;;;;;;;14.51;67.36;99880.09;4986005;28;20479;-46
2022/07/01 02:13:06;;;;;;;3.65;1.67;;;;;;;14.52;67.69;99876.59;4984497;28;20693;-48
2022/07/01 02:15:32;;;;;;;4.47;1.88;;;;;;;14.50;67.17;99870.56;4988401;28;20046;-45
2022/07/01 02:18:00;;;;;;;3.60;1.58;;;;;;;14.48;67.47;99869.72;4983824;28;20050;-44
2022/07/01 02:20:26;;;;;;;4.97;1.70;;;;;;;14.45;67.16;99875.03;4985688;28;20050;-47
2022/07/01 02:22:53;;;;;;;4.47;1.65;;;;;;;14.44;67.71;99873.31;4985550;28;20491;-46
2022/07/01 02:25:20;;;;;;;4.93;1.70;;;;;;;14.42;67.49;99869.88;4984410;28;20476;-42
2022/07/01 02:27:47;;;;;;;2.65;1.55;;;;;;;14.40;67.33;99878.56;4982516;28;20050;-46
2022/07/01 02:30:14;;;;;;;3.80;1.83;;;;;;;14.38;67.93;99877.75;4983604;28;20124;-46
2022/07/01 02:32:41;;;;;;;4.68;1.55;;;;;;;14.38;68.13;99882.97;4982572;28;20046;-44
2022/07/01 02:35:07;;;;;;;3.60;1.75;;;;;;;14.37;67.98;99881.25;4983580;28;20526;-45
2022/07/01 02:37:34;;;;;;;3.08;1.95;;;;;;;14.36;68.27;99884.75;4986599;28;20054;-46
2022/07/01 02:40:02;;;;;;;4.05;2.15;;;;;;;14.36;68.66;99876.91;4987560;28;20046;-44
2022/07/01 02:42:34;;;;;;;3.90;1.88;;;;;;;14.37;67.92;99880.41;4984510;28;20046;-44
2022/07/01 02:45:03;;;;;;;2.95;1.98;;;;;;;14.35;68.22;99875.22;4983857;28;20046;-44
2022/07/01 02:47:32;;;;;;;8.20;2.13;;;;;;;14.31;67.91;99878.78;4980281;28;20058;-44
2022/07/01 02:49:59;;;;;;;5.35;1.92;;;;;;;14.31;67.88;99877.91;4983322;28;20095;-43
2022/07/01 02:52:27;;;;;;;4.20;1.95;;;;;;;14.30;67.71;99882.28;4985398;28;20105;-44
2022/07/01 02:54:54;;;;;;;4.13;2.08;;;;;;;14.29;67.93;99887.53;4981251;28;20187;-46
2022/07/01 02:57:21;;;;;;;5.68;2.05;;;;;;;14.30;67.98;99887.50;4985488;28;20171;-47
2022/07/01 02:59:48;;;;;;;3.70;1.98;;;;;;;14.28;68.73;99889.25;4996832;28;20046;-46
2022/07/01 03:02:14;;;;;;;3.95;2.22;;;;;;;14.27;68.58;99885.81;4985346;28;20046;-43
2022/07/01 03:04:41;;;;;;;3.25;1.92;;;;;;;14.27;68.45;99891.03;4985094;28;20070;-45
2022/07/01 03:07:08;;;;;;;4.68;2.30;;;;;;;14.28;69.13;99891.84;4983870;28;20050;-46
2022/07/01 03:09:35;;;;;;;3.63;2.13;;;;;;;14.27;68.16;99898.84;4983632;28;20100;-45
2022/07/01 03:12:24;;;;;;;3.70;2.05;;;;;;;14.27;68.49;99897.97;4983848;28;20553;-44
2022/07/01 03:14:48;;;;;;;4.03;2.17;;;;;;;14.24;68.89;99903.22;4981596;28;20050;-45
2022/07/01 03:17:15;;;;;;;4.10;2.13;;;;;;;14.25;68.83;99907.53;4982652;28;20461;-44
2022/07/01 03:19:42;;;;;;;4.32;2.33;;;;;;;14.25;68.79;99907.53;4984066;28;20073;-44
2022/07/01 03:22:09;;;;;;;5.32;2.72;;;;;;;14.27;69.02;99908.38;4983095;28;20079;-45
2022/07/01 03:24:36;;;;;;;5.63;2.38;;;;;;;14.29;69.37;99904.03;4984187;28;20051;-45
2022/07/01 03:27:03;;;;;;;6.78;2.72;;;;;;;14.29;68.65;99900.53;4980888;28;20113;-43
2022/07/01 03:29:30;;;;;;;7.75;2.65;;;;;;;14.27;68.67;99903.19;4985273;28;20113;-44
2022/07/01 03:31:56;;;;;;;5.07;2.80;;;;;;;14.28;68.93;99910.09;4985245;28;20046;-44
2022/07/01 03:34:23;;;;;;;7.82;3.13;;;;;;;14.28;69.30;99902.28;4986400;28;20058;-44
2022/07/01 03:36:49;;;;;;;4.63;2.60;;;;;;;14.29;68.87;99908.34;4984281;28;20042;-45
2022/07/01 03:39:16;;;;;;;5.30;3.08;;;;;;;14.30;68.53;99913.53;4982651;28;20185;-45
2022/07/01 03:41:44;;;;;;;5.43;2.65;;;;;;;14.29;68.96;99911.84;4986758;28;20104;-44
2022/07/01 03:44:10;;;;;;;5.43;2.45;;;;;;;14.29;69.35;99911.84;4981457;28;20046;-44
2022/07/01 03:46:37;;;;;;;5.95;3.60;;;;;;;14.29;69.51;99917.03;4979564;28;21739;-47
2022/07/01 03:49:04;;;;;;;6.78;3.00;;;;;;;14.29;68.67;99911.84;4984393;28;20050;-47
2022/07/01 03:51:31;;;;;;;7.85;2.97;;;;;;;14.27;68.61;99911.00;4981581;28;20050;-43
2022/07/01 03:56:44;;;;;;;6.55;2.97;;;;;;;14.23;69.59;99923.22;4981197;28;20097;-46
2022/07/01 03:59:11;;;;;;;6.05;3.05;;;;;;;14.26;69.78;99932.72;4986230;28;20161;-45
2022/07/01 04:01:37;;;;;;;7.28;3.92;;;;;;;14.25;68.78;99928.38;4981236;28;20054;-48
2022/07/01 04:04:04;;;;;;;8.43;3.63;;;;;;;14.23;69.60;99922.38;4986092;28;20046;-49
2022/07/01 04:06:31;;;;;;;5.50;3.10;;;;;;;14.22;69.75;99925.88;4983870;28;20096;-43
2022/07/01 04:08:57;;;;;;;7.75;3.60;;;;;;;14.22;69.66;99920.66;4985036;28;20043;-46
2022/07/01 04:11:24;;;;;;;6.95;3.40;;;;;;;14.22;69.54;99925.88;4984890;28;20050;-44
2022/07/01 04:13:52;;;;;;;7.70;3.80;;;;;;;14.23;69.66;99938.00;4983051;28;20049;-44
2022/07/01 04:16:19;;;;;;;7.68;4.15;;;;;;;14.24;69.14;99934.50;4982647;28;20058;-44
2022/07/01 04:18:47;;;;;;;7.72;4.15;;;;;;;14.26;69.35;99943.16;4985822;28;20553;-45
2022/07/01 04:24:04;;;;;;;8.07;4.03;;;;;;;14.29;70.03;99943.09;4980964;28;20038;-44
2022/07/01 04:26:30;;;;;;;9.35;4.32;;;;;;;14.29;69.86;99945.69;4982658;28;20067;-44
2022/07/01 04:29:05;;;;;;;9.75;3.92;;;;;;;14.30;69.57;99949.16;4984282;28;20065;-44
2022/07/01 04:31:32;;;;;;;10.05;4.88;;;;;;;14.32;69.47;99955.19;4978086;28;20043;-44
2022/07/01 04:33:59;;;;;;;8.38;4.30;;;;;;;14.34;69.45;99954.28;4985383;28;20062;-45
2022/07/01 04:36:26;;;;;;;8.13;4.10;;;;;;;14.36;70.19;99951.63;4980295;28;20059;-45
2022/07/01 04:38:53;;;;;;;6.82;4.13;;;;;;;14.38;70.06;99960.25;4984551;28;20039;-43
2022/07/01 04:44:06;;;;;;;11.70;4.72;;;;;;;14.40;69.96;99953.28;4971526;28;20589;-44
2022/07/01 04:46:33;;;;;;;9.43;4.32;;;;;;;14.39;69.57;99951.59;4984423;28;20096;-44
2022/07/01 04:49:00;;;;;;;9.25;4.25;;;;;;;14.39;70.06;99959.41;4978920;28;20058;-44
2022/07/01 04:51:28;;;;;;;10.02;4.60;;;;;;;14.40;70.17;99959.34;4978540;28;20057;-44
2022/07/01 04:53:55;;;;;;;11.63;5.30;;;;;;;14.43;69.63;99954.97;4984486;28;20051;-46
2022/07/01 04:56:21;;;;;;;9.10;5.13;;;;;;;14.45;70.26;99953.22;4981841;28;20055;-43
2022/07/01 04:58:48;;;;;;;14.63;4.85;;;;;;;14.47;70.06;99961.84;4978961;28;20042;-44
2022/07/01 05:01:14;;;;;;;10.15;5.07;;;;;;;14.48;70.22;99963.53;4983901;28;20450;-45
2022/07/01 05:03:41;;;;;;;12.07;5.10;;;;;;;14.50;70.47;99967.00;4986099;28;20184;-46
2022/07/01 05:06:08;;;;;;;11.13;5.80;;;;;;;14.51;70.58;99968.69;4977833;28;20050;-43
2022/07/01 05:08:34;;;;;;;9.65;5.18;;;;;;;14.55;70.22;99970.34;4979868;28;20108;-44
2022/07/01 05:11:01;;;;;;;10.52;4.82;;;;;;;14.56;70.66;99977.28;4980367;28;20050;-43
2022/07/01 05:13:27;;;;;;;8.57;4.07;;;;;;;14.55;69.71;99978.16;4981460;28;20059;-45
2022/07/01 05:15:54;;;;;;;8.38;4.15;;;;;;;14.54;69.71;99973.84;4977455;28;20047;-44
2022/07/01 05:23:54;;;;;;;8.95;4.13;;;;;;;14.53;70.48;99972.16;4983492;28;20078;-44
2022/07/01 05:26:21;;;;;;;8.75;4.38;;;;;;;14.56;69.93;99972.06;4981206;28;20050;-46
2022/07/01 05:28:47;;;;;;;9.88;4.43;;;;;;;14.59;70.15;99972.00;4978680;28;20117;-48
2022/07/01 05:31:14;;;;;;;7.43;4.07;;;;;;;14.65;70.34;99979.72;4981980;28;20053;-45
2022/07/01 05:33:42;;;;;;;7.72;4.18;;;;;;;14.72;70.40;99972.59;4986157;28;20050;-45
2022/07/01 05:36:09;;;;;;;6.50;3.80;;;;;;;14.82;70.37;99968.09;4979819;28;20051;-45
2022/07/01 05:38:36;;;;;;;9.45;5.45;;;;;;;14.93;70.18;99975.66;4983984;28;20442;-46
2022/07/01 05:41:03;;;;;;;10.68;4.70;;;;;;;15.07;70.67;99974.50;4980034;28;20053;-44
2022/07/01 05:43:30;;;;;;;8.63;3.58;;;;;;;15.24;70.71;99974.13;4979106;28;20479;-48
2022/07/01 05:45:57;;;;;;;8.07;4.40;;;;;;;15.36;70.72;99973.84;4982637;28;20039;-46
2022/07/01 05:48:23;;;;;;;7.82;4.00;;;;;;;15.46;70.05;99974.47;4975584;28;20053;-46
2022/07/01 05:50:50;;;;;;;8.18;4.55;;;;;;;15.55;69.68;99970.78;4980133;28;20046;-44
2022/07/01 05:53:18;;;;;;;9.00;4.45;;;;;;;15.61;69.85;99973.25;4981516;28;20150;-48
2022/07/01 05:55:45;;;;;;;8.15;4.18;;;;;;;15.64;69.82;99967.94;4982973;28;20050;-46
2022/07/01 05:58:12;;;;;;;10.63;5.13;;;;;;;15.68;70.05;99966.94;4984503;28;20081;-44
2022/07/01 06:00:43;;;;;;;9.02;4.72;;;;;;;15.70;69.44;99969.53;4976777;28;20093;-46
2022/07/01 06:03:12;;;;;;;8.70;4.10;;;;;;;15.72;69.39;99972.09;4980190;28;20053;-46
2022/07/01 06:05:40;;;;;;;6.82;3.85;;;;;;;15.73;69.39;99965.97;4979978;28;20073;-45
2022/07/01 06:08:07;;;;;;;6.43;3.67;;;;;;;15.73;69.13;99971.19;4978410;28;20054;-45
2022/07/01 06:10:35;;;;;;;8.80;4.72;;;;;;;15.72;69.39;99965.13;4982137;28;20043;-45
2022/07/01 06:13:03;;;;;;;9.00;4.72;;;;;;;15.72;69.02;99972.09;4986967;28;20053;-44
2022/07/01 06:15:30;;;;;;;6.65;3.90;;;;;;;15.72;68.82;99970.38;4983089;28;20046;-44
2022/07/01 06:17:57;;;;;;;9.88;5.15;;;;;;;15.72;68.77;99969.50;4983209;28;20046;-46
2022/07/01 06:20:24;;;;;;;9.00;4.68;;;;;;;15.73;69.39;99981.66;4984866;28;20101;-45
2022/07/01 06:22:50;;;;;;;10.13;4.72;;;;;;;15.73;69.10;99981.66;4985762;28;20051;-47
2022/07/01 06:25:18;;;;;;;8.13;4.70;;;;;;;15.71;69.26;99983.44;4986702;28;20047;-45
2022/07/01 06:27:45;;;;;;;9.80;4.43;;;;;;;15.71;69.02;99984.31;4982444;28;20054;-47
2022/07/01 06:30:12;;;;;;;7.60;3.67;;;;;;;15.74;69.32;99986.00;4987802;28;20078;-45
2022/07/01 06:32:39;;;;;;;7.03;4.05;;;;;;;15.74;68.75;99984.22;4987759;28;20046;-45
2022/07/01 06:35:07;;;;;;;7.63;4.07;;;;;;;15.75;69.29;99982.47;4988089;28;20069;-44
2022/07/01 06:37:35;;;;;;;6.43;3.85;;;;;;;15.77;68.86;99988.53;4986833;28;20055;-49
2022/07/01 06:40:05;;;;;;;5.75;3.33;;;;;;;15.80;68.56;99983.19;4985598;28;20062;-46
2022/07/01 06:42:32;;;;;;;9.77;4.40;;;;;;;15.83;68.33;99985.75;4987323;28;20081;-47
2022/07/01 06:44:59;;;;;;;7.65;3.97;;;;;;;15.88;69.11;99994.31;4982009;28;20050;-46
2022/07/01 06:47:26;;;;;;;8.05;4.00;;;;;;;15.96;68.71;99995.91;4980646;28;20042;-47
2022/07/01 06:49:53;;;;;;;7.03;4.00;;;;;;;16.05;68.33;100000.91;4983890;28;20109;-47
2022/07/01 06:52:21;;;;;;;7.05;4.40;;;;;;;16.14;68.95;99991.97;4988112;28;20070;-46
2022/07/01 06:54:47;;;;;;;9.05;4.50;;;;;;;16.25;68.99;99995.13;4982642;28;20121;-46
2022/07/01 06:57:14;;;;;;;6.45;3.88;;;;;;;16.37;68.50;99999.16;4983747;28;20050;-46
2022/07/01 06:59:41;;;;;;;8.32;4.32;;;;;;;16.50;68.48;100004.03;4987660;28;20491;-49
2022/07/01 07:02:07;;;;;;;9.88;3.88;;;;;;;16.60;68.16;100005.50;4980738;28;20108;-45
2022/07/01 07:04:35;;;;;;;7.75;3.88;;;;;;;16.70;67.74;100006.97;4985360;28;20042;-48
2022/07/01 07:07:21;;;;;;;6.95;4.15;;;;;;;16.82;67.92;100004.91;4980212;28;20085;-45
2022/07/01 07:09:48;;;;;;;6.45;3.90;;;;;;;16.95;68.08;99998.38;4986055;28;20049;-45
2022/07/01 07:12:14;;;;;;;6.10;3.92;;;;;;;17.08;67.36;100000.66;4980661;28;20054;-48
2022/07/01 07:14:41;;;;;;;7.80;4.30;;;;;;;17.20;67.23;100000.25;4980045;28;20589;-46
2022/07/01 07:17:07;;;;;;;5.97;3.90;;;;;;;17.37;67.26;100006.75;4981370;28;20050;-45
2022/07/01 07:19:34;;;;;;;7.82;4.00;;;;;;;17.51;67.24;100013.28;4986217;28;20091;-46
2022/07/01 07:22:01;;;;;;;10.98;4.05;;;;;;;17.62;67.33;100015.59;4987157;28;20050;-47
2022/07/01 07:24:27;;;;;;;5.78;3.47;;;;;;;17.73;66.64;100003.81;4988614;28;20062;-47
2022/07/01 07:26:54;;;;;;;4.93;2.90;;;;;;;17.86;67.17;100004.28;4986648;28;20491;-46
2022/07/01 07:29:20;;;;;;;6.07;3.03;;;;;;;17.99;66.32;100007.34;4985024;28;20111;-45
2022/07/01 07:31:47;;;;;;;5.18;3.03;;;;;;;18.13;65.95;99999.94;4981564;28;20821;-48
2022/07/01 07:34:14;;;;;;;4.40;2.42;;;;;;;18.20;65.07;99997.03;4986530;28;20073;-47
2022/07/01 07:36:40;;;;;;;6.22;2.75;;;;;;;18.32;65.25;99997.50;4982366;28;20043;-48
2022/07/01 07:39:07;;;;;;;4.72;2.70;;;;;;;18.44;65.22;99994.44;4981043;28;20058;-47
2022/07/01 07:41:34;;;;;;;4.85;2.53;;;;;;;18.59;65.69;99997.41;4984899;28;20050;-46
2022/07/01 07:44:00;;;;;;;3.53;2.30;;;;;;;18.72;64.88;99996.06;4983745;28;20062;-48
2022/07/01 07:46:27;;;;;;;4.22;2.40;;;;;;;18.85;65.16;100003.47;4986637;28;20594;-45
2022/07/01 07:48:54;;;;;;;3.50;2.20;;;;;;;18.96;64.47;100006.53;4983738;28;20143;-45
2022/07/01 07:51:22;;;;;;;3.25;2.38;;;;;;;18.99;63.81;100000.31;4980614;28;20047;-46
2022/07/01 07:53:52;;;;;;;5.25;2.33;;;;;;;19.02;64.00;100001.03;4982771;28;20046;-47
2022/07/01 07:56:19;;;;;;;3.30;1.65;;;;;;;19.09;63.77;99995.59;4980035;28;20047;-46
2022/07/01 07:58:45;;;;;;;5.05;2.22;;;;;;;19.15;63.74;100005.81;4981796;28;20050;-48
2022/07/01 08:01:12;;;;;;;3.95;1.88;;;;;;;19.15;63.53;100000.56;4976783;28;20054;-44
2022/07/01 08:03:39;;;;;;;5.30;3.25;;;;;;;19.20;63.89;100003.03;4974098;28;20453;-46
2022/07/01 08:06:06;;;;;;;5.25;3.22;;;;;;;19.27;63.22;100015.88;4979239;28;20398;-46
2022/07/01 08:08:32;;;;;;;7.32;1.80;;;;;;;19.36;63.90;100011.16;4980132;28;20050;-46
2022/07/01 08:11:00;;;;;;;2.63;2.08;;;;;;;19.41;62.58;100017.06;4981557;28;20043;-45
2022/07/01 08:13:27;;;;;;;4.20;2.15;;;;;;;19.44;62.62;100016.94;4976471;28;20054;-43
2022/07/01 08:15:54;;;;;;;4.25;1.75;;;;;;;19.54;63.46;100017.44;4982636;28;20051;-47
2022/07/01 08:18:21;;;;;;;4.45;1.83;;;;;;;19.61;62.77;100024.16;4980099;28;20054;-48
2022/07/01 08:20:52;;;;;;;2.83;1.60;;;;;;;19.67;62.92;100017.78;4982939;28;20050;-46
2022/07/01 08:23:20;;;;;;;2.90;1.85;;;;;;;19.75;62.49;100018.31;4983563;28;20510;-46
2022/07/01 08:25:47;;;;;;;2.30;1.83;;;;;;;19.78;62.08;100019.97;4982970;28;20054;-45
2022/07/01 08:28:15;;;;;;;4.15;1.83;;;;;;;19.85;62.43;100026.66;4982441;28;20042;-47
2022/07/01 08:30:41;;;;;;;5.40;1.60;;;;;;;19.87;62.54;100029.22;4982231;28;20057;-45
2022/07/01 08:33:09;;;;;;;2.38;1.65;;;;;;;19.91;62.01;100025.56;4980132;28;20054;-44
2022/07/01 08:35:35;;;;;;;3.55;1.88;;;;;;;19.91;61.41;100030.81;4979806;28;20046;-46
2022/07/01 08:38:03;;;;;;;5.75;2.00;;;;;;;19.90;61.20;100034.38;4978727;28;20062;-45
2022/07/01 08:40:31;;;;;;;5.25;2.78;;;;;;;19.93;61.84;100041.25;4982628;28;20303;-45
2022/07/01 08:42:59;;;;;;;3.90;1.52;;;;;;;19.98;61.60;100032.28;4976851;28;20065;-46
2022/07/01 08:45:28;;;;;;;3.05;2.00;;;;;;;20.04;61.46;100034.66;4979665;28;20134;-48
2022/07/01 08:47:57;;;;;;;2.83;1.52;;;;;;;20.14;61.46;100036.91;4982718;28;20737;-45
2022/07/01 08:50:25;;;;;;;3.33;2.25;;;;;;;20.26;61.30;100035.50;4981351;28;20054;-47
2022/07/01 08:52:52;;;;;;;5.07;2.08;;;;;;;20.44;61.37;100033.00;4983660;28;20046;-47
2022/07/01 08:55:20;;;;;;;5.00;2.03;;;;;;;20.61;61.12;100040.13;4977258;28;20070;-46
2022/07/01 08:57:47;;;;;;;4.65;1.73;;;;;;;20.76;60.02;100039.44;4982007;28;20458;-48
2022/07/01 09:00:15;;;;;;;4.95;1.60;;;;;;;20.90;59.99;100038.84;4981092;28;20054;-46
2022/07/01 09:03:01;;;;;;;3.97;1.50;;;;;;;21.01;59.91;100054.13;4984615;28;20050;-45
2022/07/01 09:05:29;;;;;;;4.68;1.85;;;;;;;21.09;58.87;100052.91;4982433;28;20054;-45
2022/07/01 09:08:00;;;;;;;3.13;1.40;;;;;;;21.13;58.86;100051.84;4979215;28;20073;-45
2022/07/01 09:10:28;;;;;;;2.30;1.55;;;;;;;21.20;58.66;100058.53;4979200;28;20058;-48
2022/07/01 09:12:55;;;;;;;5.10;2.08;;;;;;;21.27;58.02;100065.22;4978799;28;20064;-49
2022/07/01 09:15:25;;;;;;;3.78;1.70;;;;;;;21.29;58.09;100052.84;4979832;28;20058;-49
2022/07/01 09:17:54;;;;;;;2.65;1.90;;;;;;;21.36;57.92;100056.03;4983209;28;20099;-48
2022/07/01 09:20:26;;;;;;;2.90;2.45;;;;;;;21.41;57.84;100055.81;4979584;28;20453;-48
2022/07/01 09:25:43;;;;;;;3.13;2.72;;;;;;;21.60;57.52;100060.19;5034666;28;20416;-47
2022/07/01 09:30:57;;;;;;;4.22;2.13;;;;;;;21.87;57.26;100068.53;5020567;28;20406;-45
2022/07/01 09:33:27;;;;;;;6.70;2.05;;;;;;;21.95;57.48;100062.88;5017689;28;20148;-46
2022/07/01 09:35:55;;;;;;;3.70;1.52;;;;;;;22.04;56.54;100075.59;5017719;28;20053;-47
2022/07/01 09:38:23;;;;;;;5.43;1.95;;;;;;;22.14;57.21;100064.59;5015333;28;20046;-46
2022/07/01 09:41:01;;;;;;;2.95;1.70;;;;;;;22.28;56.05;100080.56;5018761;28;20050;-49
2022/07/01 09:43:31;;;;;;;2.72;2.20;;;;;;;22.44;56.09;100074.50;5016658;28;20441;-47
2022/07/01 09:46:05;;;;;;;4.85;1.60;;;;;;;22.56;55.68;100073.88;5017107;28;20041;-46
2022/07/01 09:51:10;;;;;;;3.88;1.52;;;;;;;22.77;55.08;100084.25;5030460;28;20418;-48
2022/07/01 09:53:42;;;;;;;3.42;1.85;;;;;;;22.85;54.44;100078.53;5024982;28;20045;-47
2022/07/01 09:56:09;;;;;;;4.45;2.05;;;;;;;22.90;54.67;100084.41;5033712;28;20823;-47
2022/07/01 09:58:38;;;;;;;6.60;2.03;;;;;;;22.93;55.05;100088.69;5032035;28;20616;-46
2022/07/01 10:01:08;;;;;;;5.15;1.60;;;;;;;23.00;54.58;100086.56;5038189;28;20049;-49
2022/07/01 10:03:38;;;;;;;4.13;2.05;;;;;;;23.03;53.88;100084.59;5038262;28;20563;-49
2022/07/01 10:12:04;;;;;;;3.42;1.42;;;;;;;22.94;53.99;100080.69;5053592;27;20410;-48
2022/07/01 10:14:35;;;;;;;4.38;1.38;;;;;;;22.97;53.79;100087.59;5016257;28;20461;-47
2022/07/01 10:17:02;;;;;;;2.50;1.20;;;;;;;22.97;53.43;100087.59;5050674;28;20053;-48
2022/07/01 10:19:30;;;;;;;3.55;1.30;;;;;;;23.02;53.64;100093.47;5039687;28;20053;-49
2022/07/01 10:22:37;;;;;;;3.70;0.80;;;;;;;23.07;54.02;100090.59;5039204;28;20045;-45
2022/07/01 10:27:40;;;;;;;2.88;0.90;;;;;;;23.45;53.23;100092.06;5048124;28;20391;-47
2022/07/01 10:30:15;;;;;;;1.80;0.80;;;;;;;23.65;52.75;100090.06;5031458;28;20045;-46
2022/07/01 10:32:46;;;;;;;2.45;1.00;;;;;;;23.84;52.45;100089.88;5024552;28;20050;-46
2022/07/01 10:35:35;;;;;;;3.17;1.30;;;;;;;24.02;52.33;100093.25;5027237;28;20064;-47
2022/07/01 10:38:03;;;;;;;4.07;1.77;;;;;;;24.27;51.61;100097.09;5018296;28;20053;-46
2022/07/01 10:40:48;;;;;;;4.40;1.10;;;;;;;24.57;52.63;100087.38;5024863;28;20053;-51
2022/07/01 10:43:17;;;;;;;2.63;1.33;;;;;;;24.77;51.91;100089.69;5023346;28;20045;-48
2022/07/01 10:45:52;;;;;;;5.43;1.10;;;;;;;24.88;51.28;100102.28;5032524;28;20050;-46
2022/07/01 10:48:21;;;;;;;3.28;1.40;;;;;;;24.92;50.27;100096.78;5028348;28;20061;-47
2022/07/01 10:50:49;;;;;;;1.98;1.30;;;;;;;24.88;49.51;100102.28;5020907;28;20092;-51
2022/07/01 10:53:16;;;;;;;2.30;1.05;;;;;;;24.94;49.28;100086.94;5018359;28;20084;-49
2022/07/01 10:55:46;;;;;;;3.70;0.95;;;;;;;25.10;49.34;100095.63;5028185;28;20047;-46
2022/07/01 10:58:15;;;;;;;3.60;0.95;;;;;;;25.32;49.18;100099.53;5062162;28;20041;-50
2022/07/01 11:00:44;;;;;;;2.30;1.02;;;;;;;25.42;48.04;100100.66;5037566;28;20057;-50
2022/07/01 11:08:23;;;;;;;2.95;1.08;;;;;;;25.48;48.47;100101.22;5105206;27;20398;-48
2022/07/01 11:10:59;;;;;;;1.20;0.82;;;;;;;25.61;47.50;100096.84;5063160;28;20148;-46
2022/07/01 11:13:27;;;;;;;2.83;0.90;;;;;;;25.62;46.90;100090.59;5082626;28;20052;-48
2022/07/01 11:15:55;;;;;;;6.75;1.05;;;;;;;25.52;46.27;100100.06;5081720;28;20093;-48
2022/07/01 11:18:23;;;;;;;2.67;0.80;;;;;;;25.47;47.28;100089.78;5085777;28;20044;-46
2022/07/01 11:20:49;;;;;;;2.25;1.35;;;;;;;25.46;46.56;100087.22;5077059;28;20052;-45
2022/07/01 11:23:16;;;;;;;2.70;1.00;;;;;;;25.32;45.79;100088.94;5078972;28;20105;-45
2022/07/01 11:25:43;;;;;;;2.33;0.75;;;;;;;25.10;45.97;100093.00;5084635;28;20040;-47
2022/07/01 11:28:12;;;;;;;1.63;0.95;;;;;;;24.96;46.35;100106.25;5083683;28;20039;-45
2022/07/01 11:30:38;;;;;;;;;;;;;;;24.73;47.28;100103.19;5081340;28;20550;-46
2022/07/01 11:33:08;;;;;;;2.85;1.58;;;;;;;24.92;47.64;100099.44;5088450;28;19925;-47
2022/07/01 11:41:22;;;;;;;1.67;1.00;;;;;;;25.49;47.68;100079.03;5078422;28;20041;-48
2022/07/01 11:43:51;;;;;;;2.75;0.85;;;;;;;25.67;46.20;100082.34;5074127;28;20045;-45
2022/07/01 11:46:18;;;;;;;3.00;0.70;;;;;;;25.69;46.02;100079.59;5083211;28;20483;-47
2022/07/01 11:48:50;;;;;;;1.73;1.10;;;;;;;25.63;45.93;100080.84;5081310;28;20143;-50
2022/07/01 11:51:20;;;;;;;3.90;0.95;;;;;;;25.62;46.20;100076.47;5078021;28;20051;-45
2022/07/01 11:53:49;;;;;;;5.78;1.85;;;;;;;25.63;45.53;100076.38;5086056;28;20385;-48
2022/07/01 11:56:17;;;;;;;3.22;0.93;;;;;;;25.71;46.01;100078.53;5086979;28;20052;-46
2022/07/01 11:58:51;;;;;;;3.13;2.53;;;;;;;25.92;45.76;100084.22;5074204;28;21632;-45
2022/07/01 12:09:17;;;;;;;3.00;0.75;;;;;;;26.52;45.32;100072.28;5013969;28;20422;-49
2022/07/01 12:11:46;;;;;;;1.58;1.13;;;;;;;26.77;45.25;100078.50;4993002;28;20365;-48
2022/07/01 12:16:59;;;;;;;3.17;1.70;;;;;;;26.89;43.74;100090.09;5046673;28;20894;-48
2022/07/01 12:22:09;;;;;;;3.47;0.95;;;;;;;26.67;42.15;100075.66;5043412;28;20755;-48
2022/07/01 12:24:36;;;;;;;3.35;1.40;;;;;;;26.60;41.90;100083.22;5018765;27;20050;-48
2022/07/01 12:27:05;;;;;;;3.80;0.85;;;;;;;26.47;41.80;100077.91;5002119;28;20050;-47